sensor_id;sensor_type;location;lat;lon;timestamp;pressure;altitude;pressure_sealevel;temperature;humidity
69784;BME280;57054;51.978;4.498;2023-11-22T00:00:17;102823.69;;;5.51;100.00
69784;BME280;57054;51.978;4.498;2023-11-22T00:02:43;102822.81;;;5.52;100.00
69784;BME280;57054;51.978;4.498;2023-11-22T00:05:08;102825.41;;;5.51;100.00
69784;BME280;57054;51.978;4.498;2023-11-22T00:07:34;102821.94;;;5.50;100.00
69784;BME280;57054;51.978;4.498;2023-11-22T00:10:00;102816.75;;;5.52;100.00
69784;BME280;57054;51.978;4.498;2023-11-22T00:12:27;102819.38;;;5.53;100.00
69784;BME280;57054;51.978;4.498;2023-11-22T00:14:53;102828.00;;;5.51;100.00
69784;BME280;57054;51.978;4.498;2023-11-22T00:17:18;102828.03;;;5.52;100.00
69784;BME280;57054;51.978;4.498;2023-11-22T00:19:44;102828.06;;;5.55;100.00
69784;BME280;57054;51.978;4.498;2023-11-22T00:22:10;102835.00;;;5.56;100.00
69784;BME280;57054;51.978;4.498;2023-11-22T00:24:39;102842.78;;;5.56;100.00
69784;BME280;57054;51.978;4.498;2023-11-22T00:27:05;102838.47;;;5.55;100.00
69784;BME280;57054;51.978;4.498;2023-11-22T00:29:31;102843.59;;;5.51;100.00
69784;BME280;57054;51.978;4.498;2023-11-22T00:31:57;102855.69;;;5.47;100.00
69784;BME280;57054;51.978;4.498;2023-11-22T00:34:22;102860.84;;;5.44;100.00
69784;BME280;57054;51.978;4.498;2023-11-22T00:36:48;102856.47;;;5.42;100.00
69784;BME280;57054;51.978;4.498;2023-11-22T00:39:14;102852.13;;;5.39;100.00
69784;BME280;57054;51.978;4.498;2023-11-22T00:41:39;102855.56;;;5.38;100.00
69784;BME280;57054;51.978;4.498;2023-11-22T00:44:05;102860.72;;;5.36;100.00
69784;BME280;57054;51.978;4.498;2023-11-22T00:46:31;102859.84;;;5.34;100.00
69784;BME280;57054;51.978;4.498;2023-11-22T00:48:57;102864.19;;;5.34;100.00
69784;BME280;57054;51.978;4.498;2023-11-22T00:51:22;102863.28;;;5.32;100.00
69784;BME280;57054;51.978;4.498;2023-11-22T00:53:48;102858.09;;;5.32;100.00
69784;BME280;57054;51.978;4.498;2023-11-22T00:56:14;102858.03;;;5.29;100.00
69784;BME280;57054;51.978;4.498;2023-11-22T00:58:40;102861.50;;;5.28;100.00
69784;BME280;57054;51.978;4.498;2023-11-22T01:01:06;102866.66;;;5.25;100.00
69784;BME280;57054;51.978;4.498;2023-11-22T01:03:31;102871.84;;;5.25;100.00
69784;BME280;57054;51.978;4.498;2023-11-22T01:05:56;102876.13;;;5.21;100.00
69784;BME280;57054;51.978;4.498;2023-11-22T01:08:23;102885.59;;;5.17;100.00
69784;BME280;57054;51.978;4.498;2023-11-22T01:10:48;102880.34;;;5.14;100.00
69784;BME280;57054;51.978;4.498;2023-11-22T01:13:13;102886.38;;;5.12;100.00
69784;BME280;57054;51.978;4.498;2023-11-22T01:15:40;102882.91;;;5.10;100.00
69784;BME280;57054;51.978;4.498;2023-11-22T01:18:06;102892.38;;;5.09;100.00
69784;BME280;57054;51.978;4.498;2023-11-22T01:20:32;102897.56;;;5.06;100.00
69784;BME280;57054;51.978;4.498;2023-11-22T01:22:57;102902.72;;;5.05;100.00
69784;BME280;57054;51.978;4.498;2023-11-22T01:25:22;102911.34;;;5.02;100.00
69784;BME280;57054;51.978;4.498;2023-11-22T01:27:48;102915.63;;;4.98;100.00
69784;BME280;57054;51.978;4.498;2023-11-22T01:30:13;102919.06;;;4.97;100.00
69784;BME280;57054;51.978;4.498;2023-11-22T01:32:39;102914.69;;;4.95;100.00
69784;BME280;57054;51.978;4.498;2023-11-22T01:35:05;102910.28;;;4.91;100.00
69784;BME280;57054;51.978;4.498;2023-11-22T01:37:31;102902.47;;;4.88;100.00
69784;BME280;57054;51.978;4.498;2023-11-22T01:39:57;102898.94;;;4.86;100.00
69784;BME280;57054;51.978;4.498;2023-11-22T01:42:23;102899.81;;;4.85;100.00
69784;BME280;57054;51.978;4.498;2023-11-22T01:44:50;102910.13;;;4.81;100.00
69784;BME280;57054;51.978;4.498;2023-11-22T01:47:17;102903.22;;;4.80;100.00
69784;BME280;57054;51.978;4.498;2023-11-22T01:49:43;102912.69;;;4.77;100.00
69784;BME280;57054;51.978;4.498;2023-11-22T01:52:09;102910.88;;;4.74;100.00
69784;BME280;57054;51.978;4.498;2023-11-22T01:54:36;102916.03;;;4.73;100.00
69784;BME280;57054;51.978;4.498;2023-11-22T01:57:02;102925.56;;;4.72;100.00
69784;BME280;57054;51.978;4.498;2023-11-22T01:59:29;102921.25;;;4.71;100.00
69784;BME280;57054;51.978;4.498;2023-11-22T02:01:54;102925.50;;;4.69;100.00
69784;BME280;57054;51.978;4.498;2023-11-22T02:04:20;102917.69;;;4.66;100.00
69784;BME280;57054;51.978;4.498;2023-11-22T02:06:46;102915.91;;;4.65;100.00
69784;BME280;57054;51.978;4.498;2023-11-22T02:09:12;102910.69;;;4.64;100.00
69784;BME280;57054;51.978;4.498;2023-11-22T02:11:41;102909.81;;;4.61;100.00
69784;BME280;57054;51.978;4.498;2023-11-22T02:14:07;102908.84;;;4.56;100.00
69784;BME280;57054;51.978;4.498;2023-11-22T02:16:34;102904.47;;;4.52;100.00
69784;BME280;57054;51.978;4.498;2023-11-22T02:19:00;102907.03;;;4.51;100.00
69784;BME280;57054;51.978;4.498;2023-11-22T02:21:26;102903.53;;;4.49;100.00
69784;BME280;57054;51.978;4.498;2023-11-22T02:23:51;102902.59;;;4.45;100.00
69784;BME280;57054;51.978;4.498;2023-11-22T02:26:16;102900.88;;;4.44;100.00
69784;BME280;57054;51.978;4.498;2023-11-22T02:28:43;102901.72;;;4.45;100.00
69784;BME280;57054;51.978;4.498;2023-11-22T02:31:09;102895.72;;;4.47;100.00
69784;BME280;57054;51.978;4.498;2023-11-22T02:33:34;102900.09;;;4.50;100.00
69784;BME280;57054;51.978;4.498;2023-11-22T02:36:01;102903.59;;;4.52;100.00
69784;BME280;57054;51.978;4.498;2023-11-22T02:38:27;102901.81;;;4.51;100.00
69784;BME280;57054;51.978;4.498;2023-11-22T02:40:53;102900.91;;;4.47;100.00
69784;BME280;57054;51.978;4.498;2023-11-22T02:43:19;102900.00;;;4.45;100.00
69784;BME280;57054;51.978;4.498;2023-11-22T02:45:44;102899.13;;;4.45;100.00
69784;BME280;57054;51.978;4.498;2023-11-22T02:48:10;102912.13;;;4.45;100.00
69784;BME280;57054;51.978;4.498;2023-11-22T02:50:35;102913.81;;;4.42;100.00
69784;BME280;57054;51.978;4.498;2023-11-22T02:53:03;102913.81;;;4.42;100.00
69784;BME280;57054;51.978;4.498;2023-11-22T02:55:29;102912.03;;;4.41;100.00
69784;BME280;57054;51.978;4.498;2023-11-22T02:57:54;102910.28;;;4.39;100.00
69784;BME280;57054;51.978;4.498;2023-11-22T03:00:20;102903.31;;;4.36;100.00
69784;BME280;57054;51.978;4.498;2023-11-22T03:02:46;102908.50;;;4.36;100.00
69784;BME280;57054;51.978;4.498;2023-11-22T03:05:12;102900.69;;;4.35;100.00
69784;BME280;57054;51.978;4.498;2023-11-22T03:07:39;102902.38;;;4.33;100.00
69784;BME280;57054;51.978;4.498;2023-11-22T03:10:06;102900.56;;;4.29;100.00
69784;BME280;57054;51.978;4.498;2023-11-22T03:12:32;102899.72;;;4.28;100.00
69784;BME280;57054;51.978;4.498;2023-11-22T03:14:58;102900.53;;;4.27;100.00
69784;BME280;57054;51.978;4.498;2023-11-22T03:17:28;102899.63;;;4.25;100.00
69784;BME280;57054;51.978;4.498;2023-11-22T03:19:57;102911.72;;;4.23;100.00
69784;BME280;57054;51.978;4.498;2023-11-22T03:22:26;102909.09;;;4.21;100.00
69784;BME280;57054;51.978;4.498;2023-11-22T03:24:52;102916.84;;;4.20;100.00
69784;BME280;57054;51.978;4.498;2023-11-22T03:27:18;102927.19;;;4.18;100.00
69784;BME280;57054;51.978;4.498;2023-11-22T03:29:43;102938.44;;;4.19;100.00
69784;BME280;57054;51.978;4.498;2023-11-22T03:32:09;102941.88;;;4.18;100.00
69784;BME280;57054;51.978;4.498;2023-11-22T03:34:36;102951.38;;;4.17;100.00
69784;BME280;57054;51.978;4.498;2023-11-22T03:37:02;102948.78;;;4.17;100.00
69784;BME280;57054;51.978;4.498;2023-11-22T03:39:27;102953.09;;;4.17;100.00
69784;BME280;57054;51.978;4.498;2023-11-22T03:41:52;102962.63;;;4.18;100.00
69784;BME280;57054;51.978;4.498;2023-11-22T03:44:18;102973.88;;;4.18;100.00
69784;BME280;57054;51.978;4.498;2023-11-22T03:46:43;102974.75;;;4.19;100.00
69784;BME280;57054;51.978;4.498;2023-11-22T03:49:09;102979.06;;;4.20;100.00
69784;BME280;57054;51.978;4.498;2023-11-22T03:51:35;102984.25;;;4.20;100.00
69784;BME280;57054;51.978;4.498;2023-11-22T03:54:02;102979.97;;;4.20;100.00
69784;BME280;57054;51.978;4.498;2023-11-22T03:56:28;102992.03;;;4.20;100.00
69784;BME280;57054;51.978;4.498;2023-11-22T03:58:54;102993.81;;;4.21;100.00
69784;BME280;57054;51.978;4.498;2023-11-22T04:01:20;102989.41;;;4.17;100.00
69784;BME280;57054;51.978;4.498;2023-11-22T04:03:48;102991.16;;;4.18;100.00
69784;BME280;57054;51.978;4.498;2023-11-22T04:06:15;102991.16;;;4.18;100.00
69784;BME280;57054;51.978;4.498;2023-11-22T04:08:42;102992.00;;;4.17;100.00
69784;BME280;57054;51.978;4.498;2023-11-22T04:11:09;102992.00;;;4.17;100.00
69784;BME280;57054;51.978;4.498;2023-11-22T04:13:35;102997.19;;;4.17;100.00
69784;BME280;57054;51.978;4.498;2023-11-22T04:16:00;102990.25;;;4.16;100.00
69784;BME280;57054;51.978;4.498;2023-11-22T04:18:26;102992.84;;;4.16;100.00
69784;BME280;57054;51.978;4.498;2023-11-22T04:20:52;103003.25;;;4.17;100.00
69784;BME280;57054;51.978;4.498;2023-11-22T04:23:17;103002.41;;;4.18;100.00
69784;BME280;57054;51.978;4.498;2023-11-22T04:25:43;103001.53;;;4.18;100.00
69784;BME280;57054;51.978;4.498;2023-11-22T04:28:08;103006.72;;;4.18;100.00
69784;BME280;57054;51.978;4.498;2023-11-22T04:30:35;103000.69;;;4.19;100.00
69784;BME280;57054;51.978;4.498;2023-11-22T04:33:00;103009.34;;;4.19;100.00
69784;BME280;57054;51.978;4.498;2023-11-22T04:35:26;103022.28;;;4.18;100.00
69784;BME280;57054;51.978;4.498;2023-11-22T04:37:52;103017.13;;;4.19;100.00
69784;BME280;57054;51.978;4.498;2023-11-22T04:40:17;103019.72;;;4.19;100.00
69784;BME280;57054;51.978;4.498;2023-11-22T04:42:43;103014.50;;;4.18;100.00
69784;BME280;57054;51.978;4.498;2023-11-22T04:45:08;103004.13;;;4.18;100.00
69784;BME280;57054;51.978;4.498;2023-11-22T04:47:34;103001.59;;;4.21;100.00
69784;BME280;57054;51.978;4.498;2023-11-22T04:50:00;103002.53;;;4.25;100.00
69784;BME280;57054;51.978;4.498;2023-11-22T04:52:25;103007.78;;;4.28;100.00
69784;BME280;57054;51.978;4.498;2023-11-22T04:54:51;103003.47;;;4.28;100.00
69784;BME280;57054;51.978;4.498;2023-11-22T04:57:16;102995.69;;;4.28;100.00
69784;BME280;57054;51.978;4.498;2023-11-22T04:59:42;102998.28;;;4.28;100.00
69784;BME280;57054;51.978;4.498;2023-11-22T05:02:07;103000.88;;;4.28;100.00
69784;BME280;57054;51.978;4.498;2023-11-22T05:04:33;103006.03;;;4.27;100.00
69784;BME280;57054;51.978;4.498;2023-11-22T05:06:58;103000.00;;;4.28;100.00
69784;BME280;57054;51.978;4.498;2023-11-22T05:09:24;103009.47;;;4.27;100.00
69784;BME280;57054;51.978;4.498;2023-11-22T05:11:49;103008.59;;;4.25;100.00
69784;BME280;57054;51.978;4.498;2023-11-22T05:14:15;103008.53;;;4.23;100.00
69784;BME280;57054;51.978;4.498;2023-11-22T05:16:40;103011.09;;;4.22;100.00
69784;BME280;57054;51.978;4.498;2023-11-22T05:19:05;103017.16;;;4.21;100.00
69784;BME280;57054;51.978;4.498;2023-11-22T05:21:31;103012.84;;;4.21;100.00
69784;BME280;57054;51.978;4.498;2023-11-22T05:23:57;103006.78;;;4.21;100.00
69784;BME280;57054;51.978;4.498;2023-11-22T05:26:23;103000.72;;;4.20;100.00
69784;BME280;57054;51.978;4.498;2023-11-22T05:28:48;102999.81;;;4.20;100.00
69784;BME280;57054;51.978;4.498;2023-11-22T05:31:14;102993.81;;;4.21;100.00
69784;BME280;57054;51.978;4.498;2023-11-22T05:33:40;102987.75;;;4.22;100.00
69784;BME280;57054;51.978;4.498;2023-11-22T05:36:06;102975.72;;;4.24;100.00
69784;BME280;57054;51.978;4.498;2023-11-22T05:38:32;102975.72;;;4.26;100.00
69784;BME280;57054;51.978;4.498;2023-11-22T05:40:59;102980.06;;;4.25;100.00
69784;BME280;57054;51.978;4.498;2023-11-22T05:43:25;102978.34;;;4.27;100.00
69784;BME280;57054;51.978;4.498;2023-11-22T05:45:54;102985.28;;;4.27;100.00
69784;BME280;57054;51.978;4.498;2023-11-22T05:48:19;102982.72;;;4.28;100.00
69784;BME280;57054;51.978;4.498;2023-11-22T05:50:46;102985.34;;;4.30;100.00
69784;BME280;57054;51.978;4.498;2023-11-22T05:53:11;102981.84;;;4.29;100.00
69784;BME280;57054;51.978;4.498;2023-11-22T05:55:37;102988.78;;;4.29;100.00
69784;BME280;57054;51.978;4.498;2023-11-22T05:58:06;102984.44;;;4.29;100.00
69784;BME280;57054;51.978;4.498;2023-11-22T06:00:31;102990.53;;;4.30;100.00
69784;BME280;57054;51.978;4.498;2023-11-22T06:02:56;102993.06;;;4.27;100.00
69784;BME280;57054;51.978;4.498;2023-11-22T06:05:22;103006.06;;;4.28;100.00
69784;BME280;57054;51.978;4.498;2023-11-22T06:07:47;103014.72;;;4.29;100.00
69784;BME280;57054;51.978;4.498;2023-11-22T06:10:13;103017.34;;;4.30;100.00
69784;BME280;57054;51.978;4.498;2023-11-22T06:12:40;103017.34;;;4.30;100.00
69784;BME280;57054;51.978;4.498;2023-11-22T06:15:05;103033.81;;;4.32;100.00
69784;BME280;57054;51.978;4.498;2023-11-22T06:17:31;103039.00;;;4.32;100.00
69784;BME280;57054;51.978;4.498;2023-11-22T06:19:56;103052.00;;;4.34;100.00
69784;BME280;57054;51.978;4.498;2023-11-22T06:22:22;103048.56;;;4.35;100.00
69784;BME280;57054;51.978;4.498;2023-11-22T06:24:47;103039.06;;;4.35;100.00
69784;BME280;57054;51.978;4.498;2023-11-22T06:27:13;103045.13;;;4.36;100.00
69784;BME280;57054;51.978;4.498;2023-11-22T06:29:40;103048.63;;;4.38;100.00
69784;BME280;57054;51.978;4.498;2023-11-22T06:32:06;103029.59;;;4.37;100.00
69784;BME280;57054;51.978;4.498;2023-11-22T06:34:32;103033.94;;;4.38;100.00
69784;BME280;57054;51.978;4.498;2023-11-22T06:36:57;103026.16;;;4.38;100.00
69784;BME280;57054;51.978;4.498;2023-11-22T06:39:25;103021.84;;;4.39;100.00
69784;BME280;57054;51.978;4.498;2023-11-22T06:41:50;103019.25;;;4.39;100.00
69784;BME280;57054;51.978;4.498;2023-11-22T06:44:16;103019.25;;;4.39;100.00
69784;BME280;57054;51.978;4.498;2023-11-22T06:46:41;103008.00;;;4.38;100.00
69784;BME280;57054;51.978;4.498;2023-11-22T06:49:06;103002.75;;;4.35;100.00
69784;BME280;57054;51.978;4.498;2023-11-22T06:51:32;102994.97;;;4.35;100.00
69784;BME280;57054;51.978;4.498;2023-11-22T06:53:57;103005.31;;;4.34;100.00
69784;BME280;57054;51.978;4.498;2023-11-22T06:56:22;103007.88;;;4.32;100.00
69784;BME280;57054;51.978;4.498;2023-11-22T06:58:48;103017.38;;;4.32;100.00
69784;BME280;57054;51.978;4.498;2023-11-22T07:01:13;103010.47;;;4.32;100.00
69784;BME280;57054;51.978;4.498;2023-11-22T07:03:40;103007.81;;;4.31;100.00
69784;BME280;57054;51.978;4.498;2023-11-22T07:06:05;103025.19;;;4.33;100.00
69784;BME280;57054;51.978;4.498;2023-11-22T07:08:31;103038.16;;;4.33;100.00
69784;BME280;57054;51.978;4.498;2023-11-22T07:10:56;103049.41;;;4.34;100.00
69784;BME280;57054;51.978;4.498;2023-11-22T07:13:22;103045.97;;;4.35;100.00
69784;BME280;57054;51.978;4.498;2023-11-22T07:15:48;103063.25;;;4.34;100.00
69784;BME280;57054;51.978;4.498;2023-11-22T07:18:13;103072.75;;;4.34;100.00
69784;BME280;57054;51.978;4.498;2023-11-22T07:20:39;103068.44;;;4.34;100.00
69784;BME280;57054;51.978;4.498;2023-11-22T07:23:05;103067.59;;;4.35;100.00
69784;BME280;57054;51.978;4.498;2023-11-22T07:25:30;103056.38;;;4.36;100.00
69784;BME280;57054;51.978;4.498;2023-11-22T07:27:57;103054.66;;;4.37;100.00
69784;BME280;57054;51.978;4.498;2023-11-22T07:30:24;103047.72;;;4.36;100.00
69784;BME280;57054;51.978;4.498;2023-11-22T07:32:52;103043.44;;;4.38;100.00
69784;BME280;57054;51.978;4.498;2023-11-22T07:35:18;103048.63;;;4.38;100.00
69784;BME280;57054;51.978;4.498;2023-11-22T07:37:46;103045.19;;;4.39;100.00
69784;BME280;57054;51.978;4.498;2023-11-22T07:40:13;103055.53;;;4.37;100.00
69784;BME280;57054;51.978;4.498;2023-11-22T07:42:39;103071.94;;;4.36;100.00
69784;BME280;57054;51.978;4.498;2023-11-22T07:45:05;103078.81;;;4.34;100.00
69784;BME280;57054;51.978;4.498;2023-11-22T07:47:31;103080.50;;;4.32;100.00
69784;BME280;57054;51.978;4.498;2023-11-22T07:49:56;103089.97;;;4.30;100.00
69784;BME280;57054;51.978;4.498;2023-11-22T07:52:22;103089.97;;;4.30;100.00
69784;BME280;57054;51.978;4.498;2023-11-22T07:54:52;103084.03;;;4.36;100.00
69784;BME280;57054;51.978;4.498;2023-11-22T07:57:17;103092.72;;;4.38;100.00
69784;BME280;57054;51.978;4.498;2023-11-22T07:59:45;103097.94;;;4.39;100.00
69784;BME280;57054;51.978;4.498;2023-11-22T08:02:12;103098.81;;;4.40;100.00
69784;BME280;57054;51.978;4.498;2023-11-22T08:04:38;103097.13;;;4.40;100.00
69784;BME280;57054;51.978;4.498;2023-11-22T08:07:03;103101.41;;;4.40;100.00
69784;BME280;57054;51.978;4.498;2023-11-22T08:09:29;103104.00;;;4.38;100.00
69784;BME280;57054;51.978;4.498;2023-11-22T08:11:58;103105.72;;;4.39;100.00
69784;BME280;57054;51.978;4.498;2023-11-22T08:14:26;103098.81;;;4.38;100.00
69784;BME280;57054;51.978;4.498;2023-11-22T08:16:53;103106.63;;;4.41;100.00
69784;BME280;57054;51.978;4.498;2023-11-22T08:19:18;103103.22;;;4.42;100.00
69784;BME280;57054;51.978;4.498;2023-11-22T08:21:44;103108.44;;;4.44;100.00
69784;BME280;57054;51.978;4.498;2023-11-22T08:24:09;103104.97;;;4.45;100.00
69784;BME280;57054;51.978;4.498;2023-11-22T08:26:38;103111.06;;;4.47;100.00
69784;BME280;57054;51.978;4.498;2023-11-22T08:29:04;103118.97;;;4.52;100.00
69784;BME280;57054;51.978;4.498;2023-11-22T08:31:30;103115.50;;;4.53;100.00
69784;BME280;57054;51.978;4.498;2023-11-22T08:33:55;103122.47;;;4.54;100.00
69784;BME280;57054;51.978;4.498;2023-11-22T08:36:21;103119.94;;;4.57;100.00
69784;BME280;57054;51.978;4.498;2023-11-22T08:38:47;103122.63;;;4.61;100.00
69784;BME280;57054;51.978;4.498;2023-11-22T08:41:12;103122.69;;;4.65;100.00
69784;BME280;57054;51.978;4.498;2023-11-22T08:43:39;103117.53;;;4.66;100.00
69784;BME280;57054;51.978;4.498;2023-11-22T08:46:05;103114.13;;;4.69;100.00
69784;BME280;57054;51.978;4.498;2023-11-22T08:48:32;103115.94;;;4.73;100.00
69784;BME280;57054;51.978;4.498;2023-11-22T08:50:57;103106.47;;;4.76;100.00
69784;BME280;57054;51.978;4.498;2023-11-22T08:53:23;103098.75;;;4.79;100.00
69784;BME280;57054;51.978;4.498;2023-11-22T08:55:49;103102.28;;;4.83;100.00
69784;BME280;57054;51.978;4.498;2023-11-22T08:58:15;103100.59;;;4.85;100.00
69784;BME280;57054;51.978;4.498;2023-11-22T09:00:41;103106.66;;;4.86;100.00
69784;BME280;57054;51.978;4.498;2023-11-22T09:03:10;103104.09;;;4.87;100.00
69784;BME280;57054;51.978;4.498;2023-11-22T09:05:41;103098.13;;;4.91;100.00
69784;BME280;57054;51.978;4.498;2023-11-22T09:08:07;103096.44;;;4.93;100.00
69784;BME280;57054;51.978;4.498;2023-11-22T09:10:38;103099.94;;;4.95;100.00
69784;BME280;57054;51.978;4.498;2023-11-22T09:13:04;103108.66;;;4.99;100.00
69784;BME280;57054;51.978;4.498;2023-11-22T09:15:31;103107.00;;;5.03;100.00
69784;BME280;57054;51.978;4.498;2023-11-22T09:17:59;103112.22;;;5.06;100.00
69784;BME280;57054;51.978;4.498;2023-11-22T09:20:25;103122.69;;;5.09;100.00
69784;BME280;57054;51.978;4.498;2023-11-22T09:22:52;103116.69;;;5.11;100.00
69784;BME280;57054;51.978;4.498;2023-11-22T09:25:20;103118.50;;;5.15;100.00
69784;BME280;57054;51.978;4.498;2023-11-22T09:27:48;103120.25;;;5.18;100.00
69784;BME280;57054;51.978;4.498;2023-11-22T09:30:18;103110.75;;;5.20;100.00
69784;BME280;57054;51.978;4.498;2023-11-22T09:33:06;103114.28;;;5.24;100.00
69784;BME280;57054;51.978;4.498;2023-11-22T09:35:32;103113.50;;;5.26;100.00
69784;BME280;57054;51.978;4.498;2023-11-22T09:38:02;103110.94;;;5.29;100.00
69784;BME280;57054;51.978;4.498;2023-11-22T09:40:30;103109.25;;;5.31;100.00
69784;BME280;57054;51.978;4.498;2023-11-22T09:42:59;103107.53;;;5.32;100.00
69784;BME280;57054;51.978;4.498;2023-11-22T09:45:26;103107.53;;;5.32;100.00
69784;BME280;57054;51.978;4.498;2023-11-22T09:47:52;103101.44;;;5.30;100.00
69784;BME280;57054;51.978;4.498;2023-11-22T09:50:20;103100.56;;;5.31;100.00
69784;BME280;57054;51.978;4.498;2023-11-22T09:52:50;103098.00;;;5.32;100.00
69784;BME280;57054;51.978;4.498;2023-11-22T09:55:17;103095.41;;;5.32;100.00
69784;BME280;57054;51.978;4.498;2023-11-22T09:57:44;103102.31;;;5.32;100.00
69784;BME280;57054;51.978;4.498;2023-11-22T10:00:11;103101.47;;;5.31;100.00
69784;BME280;57054;51.978;4.498;2023-11-22T10:02:40;103101.50;;;5.34;100.00
69784;BME280;57054;51.978;4.498;2023-11-22T10:05:06;103103.31;;;5.38;100.00
69784;BME280;57054;51.978;4.498;2023-11-22T10:07:34;103104.25;;;5.42;100.00
69784;BME280;57054;51.978;4.498;2023-11-22T10:10:00;103099.97;;;5.47;100.00
69784;BME280;57054;51.978;4.498;2023-11-22T10:12:30;103097.47;;;5.52;100.00
69784;BME280;57054;51.978;4.498;2023-11-22T10:14:55;103085.47;;;5.58;100.00
69784;BME280;57054;51.978;4.498;2023-11-22T10:17:35;103075.06;;;5.60;100.00
69784;BME280;57054;51.978;4.498;2023-11-22T10:20:00;103067.34;;;5.65;100.00
69784;BME280;57054;51.978;4.498;2023-11-22T10:22:27;103078.66;;;5.68;100.00
69784;BME280;57054;51.978;4.498;2023-11-22T10:24:52;103064.84;;;5.72;100.00
69784;BME280;57054;51.978;4.498;2023-11-22T10:27:20;103070.97;;;5.76;100.00
69784;BME280;57054;51.978;4.498;2023-11-22T10:29:45;103063.19;;;5.76;100.00
69784;BME280;57054;51.978;4.498;2023-11-22T10:32:13;103040.66;;;5.78;100.00
69784;BME280;57054;51.978;4.498;2023-11-22T10:34:39;103046.78;;;5.82;100.00
69784;BME280;57054;51.978;4.498;2023-11-22T10:37:04;103042.50;;;5.85;100.00
69784;BME280;57054;51.978;4.498;2023-11-22T10:39:30;103035.59;;;5.86;100.00
69784;BME280;57054;51.978;4.498;2023-11-22T10:41:56;103036.47;;;5.86;100.00
69784;BME280;57054;51.978;4.498;2023-11-22T10:44:22;103039.09;;;5.89;100.00
69784;BME280;57054;51.978;4.498;2023-11-22T10:46:48;103039.97;;;5.88;100.00
69784;BME280;57054;51.978;4.498;2023-11-22T10:49:15;103042.63;;;5.91;100.00
69784;BME280;57054;51.978;4.498;2023-11-22T10:51:44;103038.28;;;5.93;100.00
69784;BME280;57054;51.978;4.498;2023-11-22T10:54:13;103035.75;;;5.96;100.00
69784;BME280;57054;51.978;4.498;2023-11-22T10:56:40;103037.59;;;6.02;100.00
69784;BME280;57054;51.978;4.498;2023-11-22T10:59:11;103020.28;;;6.07;100.00
69784;BME280;57054;51.978;4.498;2023-11-22T11:01:45;103022.06;;;6.10;100.00
69784;BME280;57054;51.978;4.498;2023-11-22T11:04:23;103011.69;;;6.13;100.00
69784;BME280;57054;51.978;4.498;2023-11-22T11:06:53;103001.31;;;6.16;100.00
69784;BME280;57054;51.978;4.498;2023-11-22T11:09:21;102997.03;;;6.20;100.00
69784;BME280;57054;51.978;4.498;2023-11-22T11:11:49;103003.97;;;6.19;100.00
69784;BME280;57054;51.978;4.498;2023-11-22T11:14:16;103012.69;;;6.23;100.00
69784;BME280;57054;51.978;4.498;2023-11-22T11:16:43;103019.63;;;6.24;100.00
69784;BME280;57054;51.978;4.498;2023-11-22T11:19:14;103019.66;;;6.25;100.00
69784;BME280;57054;51.978;4.498;2023-11-22T11:21:40;103007.50;;;6.24;100.00
69784;BME280;57054;51.978;4.498;2023-11-22T11:24:06;103001.44;;;6.25;100.00
69784;BME280;57054;51.978;4.498;2023-11-22T11:26:32;102996.22;;;6.25;100.00
69784;BME280;57054;51.978;4.498;2023-11-22T11:28:59;102998.00;;;6.26;100.00
69784;BME280;57054;51.978;4.498;2023-11-22T11:31:32;102998.00;;;6.28;100.00
69784;BME280;57054;51.978;4.498;2023-11-22T11:34:01;103000.63;;;6.29;100.00
69784;BME280;57054;51.978;4.498;2023-11-22T11:36:31;102978.91;;;6.26;100.00
69784;BME280;57054;51.978;4.498;2023-11-22T11:38:59;102988.50;;;6.30;100.00
69784;BME280;57054;51.978;4.498;2023-11-22T11:41:34;102980.66;;;6.28;100.00
69784;BME280;57054;51.978;4.498;2023-11-22T11:44:04;102985.91;;;6.31;100.00
69784;BME280;57054;51.978;4.498;2023-11-22T11:46:34;102989.41;;;6.33;100.00
69784;BME280;57054;51.978;4.498;2023-11-22T11:49:06;102988.56;;;6.36;100.00
69784;BME280;57054;51.978;4.498;2023-11-22T11:51:33;102986.84;;;6.38;100.00
69784;BME280;57054;51.978;4.498;2023-11-22T11:53:58;102980.81;;;6.41;100.00
69784;BME280;57054;51.978;4.498;2023-11-22T11:56:24;102975.63;;;6.44;100.00
69784;BME280;57054;51.978;4.498;2023-11-22T11:58:53;102978.25;;;6.47;100.00
69784;BME280;57054;51.978;4.498;2023-11-22T12:01:19;102965.28;;;6.50;100.00
69784;BME280;57054;51.978;4.498;2023-11-22T12:03:46;102960.97;;;6.53;100.00
69784;BME280;57054;51.978;4.498;2023-11-22T12:06:16;102958.41;;;6.55;100.00
69784;BME280;57054;51.978;4.498;2023-11-22T12:08:42;102948.00;;;6.55;100.00
69784;BME280;57054;51.978;4.498;2023-11-22T12:11:08;102940.16;;;6.53;100.00
69784;BME280;57054;51.978;4.498;2023-11-22T12:13:34;102932.38;;;6.55;100.00
69784;BME280;57054;51.978;4.498;2023-11-22T12:16:04;102928.03;;;6.57;100.00
69784;BME280;57054;51.978;4.498;2023-11-22T12:18:41;102932.41;;;6.61;100.00
69784;BME280;57054;51.978;4.498;2023-11-22T12:21:08;102923.75;;;6.62;100.00
69784;BME280;57054;51.978;4.498;2023-11-22T12:23:36;102915.09;;;6.65;100.00
69784;BME280;57054;51.978;4.498;2023-11-22T12:26:02;102918.56;;;6.62;100.00
69784;BME280;57054;51.978;4.498;2023-11-22T12:28:30;102918.53;;;6.64;100.00
69784;BME280;57054;51.978;4.498;2023-11-22T12:31:12;102926.34;;;6.64;100.00
69784;BME280;57054;51.978;4.498;2023-11-22T12:33:38;102923.75;;;6.62;100.00
69784;BME280;57054;51.978;4.498;2023-11-22T12:36:06;102912.47;;;6.63;100.00
69784;BME280;57054;51.978;4.498;2023-11-22T12:38:33;102908.13;;;6.65;100.00
69784;BME280;57054;51.978;4.498;2023-11-22T12:40:59;102896.91;;;6.71;100.00
69784;BME280;57054;51.978;4.498;2023-11-22T12:43:25;102900.44;;;6.78;100.00
69784;BME280;57054;51.978;4.498;2023-11-22T12:46:04;102899.59;;;6.82;100.00